Date,TemperatureHighF,TemperatureAvgF,TemperatureLowF,DewpointHighF,DewpointAvgF,DewpointLowF,HumidityHigh,HumidityAvg,HumidityLow,PressureMaxIn,PressureMinIn,WindSpeedMaxMPH,WindSpeedAvgMPH,GustSpeedMaxMPH,PrecipitationSumIn
2014-1-1,38.4,30.6,25.1,28.4,23.8,19.5,86,76,61,30.36,30.06,18,2,18,0.03
2014-1-2,30.8,26.2,13.1,28.4,23.3,9.6,93,89,85,30.06,29.67,17,2,17,0.00
2014-1-3,17.5,10.2,4.5,9.5,4.0,0.0,88,76,57,30.49,29.91,17,4,17,0.01
2014-1-4,39.6,19.6,4.3,16.9,8.9,1.0,90,68,29,30.44,30.16,21,2,21,0.03
2014-1-5,52.8,35.4,14.8,45.7,28.8,11.9,91,78,51,30.19,29.43,21,1,22,0.04
2014-1-6,55.2,20.4,-5.0,47.2,14.8,-14.8,93,79,61,30.15,29.36,44,10,44,0.25
2014-1-7,4.4,-1.5,-7.9,-3.3,-9.6,-17.0,73,68,61,30.50,30.15,27,8,27,0.00
2014-1-8,24.9,15.4,2.2,21.2,7.8,-3.4,89,72,61,30.58,30.47,15,3,15,0.00
2014-1-9,36.3,28.2,18.7,30.9,21.9,16.3,92,78,60,30.63,30.40,18,2,18,0.04
2014-1-10,46.9,39.7,32.8,43.1,36.0,27.8,92,86,75,30.42,29.91,19,1,19,0.02
2014-1-11,58.0,51.2,39.4,52.7,45.8,32.7,95,82,70,29.92,29.35,29,6,30,0.48
2014-1-12,39.4,34.7,27.2,33.8,30.1,25.2,93,83,75,30.06,29.64,27,4,27,0.00
2014-1-13,58.8,42.8,26.8,46.2,34.4,25.0,94,76,35,30.03,29.73,22,4,22,0.18
2014-1-14,48.3,41.1,28.7,46.1,38.5,27.1,95,91,73,29.83,29.69,12,3,15,0.14
2014-1-15,39.9,34.0,25.6,34.1,25.9,18.1,96,73,53,30.02,29.78,20,4,20,0.01
2014-1-16,34.9,28.0,21.0,21.5,18.1,14.7,82,67,52,30.02,29.85,15,2,15,0.00
2014-1-17,42.1,33.6,26.1,33.3,28.8,18.4,93,83,51,29.93,29.80,24,4,24,0.02
2014-1-18,25.9,16.2,11.5,23.1,11.0,6.0,91,80,69,30.04,29.92,18,4,18,0.00
2014-1-19,32.5,26.4,16.9,24.4,21.4,13.4,92,81,70,29.92,29.72,18,6,25,0.01
2014-1-20,37.3,33.5,27.0,29.5,26.2,20.9,86,74,67,29.92,29.65,21,6,21,0.01
2014-1-21,26.9,17.8,4.6,21.0,12.1,-2.2,89,78,62,30.07,29.84,17,5,17,0.00
2014-1-22,11.6,4.7,-3.9,1.0,-2.0,-7.5,86,73,60,30.16,30.07,9,2,12,0.00
2014-1-23,15.1,10.5,5.4,8.7,5.2,0.9,86,79,62,30.51,30.09,23,5,23,0.01
2014-1-24,19.4,8.9,2.6,3.2,0.1,-2.1,83,68,44,30.56,29.91,23,8,23,0.00
2014-1-25,25.6,21.5,14.5,23.0,15.2,0.7,93,78,40,29.91,29.40,31,8,31,0.00
2014-1-26,35.6,19.1,8.0,24.8,12.6,3.0,87,76,62,29.89,29.63,25,5,25,0.00
2014-1-27,43.7,22.8,4.8,33.3,12.0,-5.2,85,63,46,30.30,29.53,32,8,32,0.19
2014-1-28,8.1,2.4,-5.5,-4.7,-6.9,-11.1,77,65,52,30.50,30.29,18,4,18,0.00
2014-1-29,18.0,6.7,-4.3,1.1,-3.9,-9.6,82,62,44,30.42,30.30,22,5,22,0.01
2014-1-30,36.8,19.8,-1.0,8.0,2.3,-4.9,87,50,24,30.41,30.00,12,2,12,0.00
2014-1-31,39.4,35.1,31.3,26.3,21.3,7.1,79,58,30,30.19,30.02,22,4,22,0.00
2014-2-1,56.9,42.6,30.5,36.7,28.4,23.0,83,59,41,30.18,29.88,13,1,13,0.00
2014-2-2,49.6,39.4,29.8,40.9,33.6,28.3,95,82,45,30.16,29.89,9,2,10,0.21
2014-2-3,29.8,27.4,19.1,28.2,24.9,15.6,94,90,83,30.37,30.08,8,2,8,0.00
2014-2-4,34.4,22.5,10.0,26.8,18.4,7.4,92,84,72,30.45,30.05,13,2,13,0.11
2014-2-5,42.4,31.6,22.4,41.1,28.0,17.1,96,87,74,30.24,29.61,27,6,27,0.30
2014-2-6,27.9,21.8,16.0,18.9,15.2,10.6,87,76,56,30.42,30.24,16,4,16,0.00
2014-2-7,25.9,19.3,10.0,18.4,10.8,3.8,86,70,47,30.41,30.31,22,5,22,0.00
2014-2-8,25.1,15.1,4.9,13.1,7.1,1.6,89,72,42,30.40,30.22,9,1,9,0.00
2014-2-9,31.4,23.7,18.1,29.8,19.7,12.5,94,85,72,30.23,29.95,22,3,22,0.00
2014-2-10,21.6,16.7,8.2,13.4,10.5,5.1,90,76,66,30.39,30.18,9,2,12,0.00
2014-2-11,25.3,12.7,0.4,11.2,5.7,-3.0,90,74,53,30.52,30.38,9,1,9,0.07
2014-2-12,29.1,15.7,0.1,15.2,5.6,-3.9,88,66,43,30.51,30.15,20,3,20,0.00
2014-2-13,28.0,25.7,23.5,26.3,22.9,15.5,94,89,71,30.15,29.58,14,3,15,0.00
2014-2-14,37.9,30.2,24.2,26.9,24.1,21.9,93,78,60,29.74,29.54,24,5,24,0.11
2014-2-15,29.1,25.2,14.6,25.0,19.8,6.6,93,81,59,30.09,29.66,18,4,18,0.00
2014-2-16,27.1,19.2,7.9,22.8,14.5,3.1,90,82,70,30.35,30.01,15,2,15,0.00
2014-2-17,35.0,20.8,0.7,22.4,9.9,-2.8,91,66,35,30.47,29.88,28,4,28,0.10
2014-2-18,45.7,36.1,28.5,33.5,29.8,22.2,92,78,54,30.07,29.87,26,6,26,0.63
2014-2-19,50.9,40.0,26.7,43.3,33.6,22.2,95,78,55,30.15,29.70,22,4,28,0.32
2014-2-20,55.6,41.3,21.5,43.3,31.9,19.5,95,71,45,30.16,29.72,16,3,16,0.08
2014-2-21,61.7,48.5,37.2,51.8,36.9,20.1,90,65,46,29.95,29.57,34,8,34,0.27
2014-2-22,54.7,42.6,33.5,28.5,23.3,19.8,72,48,28,30.03,29.94,30,6,30,0.00
2014-2-23,47.2,35.9,29.5,34.3,29.8,24.4,92,79,57,30.04,29.95,15,2,15,0.04
2014-2-24,32.6,27.3,22.5,25.0,12.4,8.2,76,53,38,30.17,30.01,25,6,25,0.00
2014-2-25,27.5,24.0,20.4,20.2,15.2,9.9,84,69,58,30.13,29.99,14,5,19,0.00
2014-2-26,24.8,19.6,12.5,17.6,9.2,3.2,83,64,44,30.08,29.81,19,4,20,0.00
2014-2-27,24.0,15.8,5.9,17.6,6.0,-3.6,87,65,50,30.22,29.69,29,8,29,0.00
2014-2-28,30.8,15.2,-0.2,5.3,-0.3,-4.2,84,54,24,30.43,30.21,11,1,11,0.00
2014-3-1,49.0,35.7,18.6,32.5,19.0,4.8,76,52,30,30.23,30.09,20,4,20,0.00
2014-3-2,41.5,29.1,17.2,32.1,23.2,9.7,91,79,67,30.16,30.05,13,3,13,0.00
2014-3-3,22.9,13.6,4.1,9.7,0.6,-4.6,80,56,42,30.43,30.16,20,3,20,0.05
2014-3-4,39.1,20.2,2.5,14.5,6.6,-1.4,85,59,30,30.44,30.20,8,1,8,0.06
2014-3-5,35.9,25.7,15.4,17.0,12.6,7.2,87,60,32,30.43,30.21,13,2,13,0.01
2014-3-6,36.9,27.0,17.7,18.9,13.3,6.8,67,56,45,30.48,30.24,14,4,23,0.00
2014-3-7,55.4,37.6,27.3,34.0,25.5,16.9,88,63,43,30.24,29.94,24,2,24,0.00
2014-3-8,52.1,38.4,26.6,37.3,31.6,24.3,93,78,51,30.04,29.93,19,3,19,0.01
2014-3-9,41.2,31.5,22.3,28.6,21.8,17.4,90,68,46,30.23,29.99,15,4,15,0.02
2014-3-10,60.4,46.1,34.3,37.0,31.2,22.5,68,57,40,29.99,29.64,24,7,24,0.00
2014-3-11,69.5,54.3,40.9,44.8,39.9,34.5,80,60,39,29.70,29.58,16,3,17,0.00
2014-3-12,57.6,40.1,21.4,54.7,36.0,14.9,96,85,73,29.71,29.01,18,4,27,0.92
2014-3-13,28.2,18.7,8.1,15.2,7.6,-0.5,84,62,42,30.19,29.72,24,6,25,0.00
2014-3-14,60.2,44.4,24.1,34.1,23.7,12.3,61,45,34,30.18,29.76,35,10,35,0.00
2014-3-15,54.0,45.3,33.4,41.7,32.4,26.0,87,62,39,30.12,29.72,30,7,35,0.08
2014-3-16,33.4,28.9,23.9,25.9,15.7,8.3,78,59,39,30.24,30.07,16,4,16,0.00
2014-3-17,35.2,29.5,23.0,23.6,19.7,13.6,77,67,57,30.06,29.94,16,4,16,0.00
2014-3-18,48.5,37.6,28.8,32.3,26.1,22.1,78,64,51,30.12,29.98,21,4,25,0.00
2014-3-19,57.9,46.9,37.5,46.3,37.5,27.3,93,71,53,30.06,29.74,21,5,21,0.17
2014-3-20,48.0,39.4,35.1,43.8,30.8,25.8,89,71,61,30.02,29.79,25,7,28,0.03
2014-3-21,48.7,36.1,24.6,35.9,30.3,22.2,94,80,59,30.13,29.89,14,2,14,0.03
2014-3-22,54.7,48.6,35.4,38.7,32.4,27.2,72,54,39,30.09,29.73,22,6,24,0.00
2014-3-23,35.7,31.2,18.9,27.9,19.0,8.3,78,61,37,30.32,30.08,18,4,18,0.00
2014-3-24,34.2,24.9,16.3,13.8,9.2,4.6,69,52,36,30.34,30.12,14,3,14,0.00
2014-3-25,38.7,29.5,20.6,22.8,16.5,12.2,86,60,38,30.13,29.88,20,2,20,0.00
2014-3-26,29.8,23.6,17.0,19.9,11.1,3.1,83,60,41,30.34,30.01,24,5,24,0.00
2014-3-27,54.2,36.1,14.3,24.1,16.0,9.2,86,51,18,30.37,29.94,18,2,18,0.00
2014-3-28,63.4,55.9,43.6,50.8,40.6,23.8,80,58,33,30.11,29.82,35,9,35,0.01
2014-3-29,59.6,44.9,35.3,49.2,41.0,33.2,94,87,66,30.12,29.66,16,3,16,0.61
2014-3-30,47.4,36.7,32.4,38.5,31.2,24.8,94,81,57,30.09,29.71,22,5,22,0.14
2014-3-31,62.6,43.1,26.9,36.0,27.7,22.2,84,58,27,30.24,30.09,15,2,15,0.00
2014-4-1,76.4,56.7,33.3,44.8,32.3,26.5,82,44,20,30.12,29.82,21,4,29,0.00
2014-4-2,63.7,52.4,44.2,48.1,42.0,24.1,94,72,23,30.12,29.94,17,3,17,0.55
2014-4-3,65.7,52.7,45.3,49.5,44.1,36.5,90,74,48,30.09,29.77,22,3,22,0.38
2014-4-4,63.0,55.2,48.1,58.0,50.9,39.7,93,86,72,29.76,29.51,26,5,26,0.58
2014-4-5,47.9,39.9,29.4,39.3,30.0,25.4,85,68,54,30.20,29.76,29,6,29,0.00
2014-4-6,60.8,42.9,23.4,33.2,25.4,18.5,94,57,23,30.25,30.03,17,2,17,0.00
2014-4-7,50.9,48.3,43.3,45.6,35.6,23.3,86,64,34,30.04,29.42,28,4,28,0.08
2014-4-8,59.9,50.9,38.9,50.2,40.3,30.6,91,69,39,29.72,29.37,41,7,41,0.09
2014-4-9,58.4,45.7,32.6,37.8,31.2,24.7,91,61,33,30.06,29.72,21,3,21,0.00
2014-4-10,70.8,52.6,29.9,37.6,32.4,25.4,88,52,26,30.11,29.84,26,6,26,0.00
2014-4-11,64.4,55.8,49.4,53.1,48.6,34.3,94,80,36,30.08,29.88,18,4,18,0.25
2014-4-12,75.5,58.6,38.6,52.2,41.0,31.8,97,61,22,30.21,29.94,16,2,16,0.01
2014-4-13,82.2,72.0,62.5,55.9,50.4,46.0,65,47,33,29.97,29.78,21,7,27,0.00
2014-4-14,76.7,70.0,61.8,58.7,53.8,50.5,88,58,44,29.78,29.58,24,7,29,0.04
2014-4-15,66.2,44.2,27.7,57.2,37.5,18.1,92,78,64,30.16,29.43,21,6,21,0.15
2014-4-16,46.4,34.6,24.3,22.9,18.2,12.8,81,53,33,30.50,30.16,15,3,15,0.00
2014-4-17,61.7,48.0,36.6,32.7,25.1,15.6,49,41,31,30.51,30.36,28,5,28,0.00
2014-4-18,69.8,54.8,41.5,37.8,33.4,29.6,67,47,25,30.39,30.16,17,3,17,0.00
2014-4-19,63.8,52.9,40.1,41.7,33.3,24.1,87,52,22,30.33,30.19,10,2,16,0.00
2014-4-20,72.5,58.6,42.8,36.6,30.3,25.4,67,36,20,30.34,30.14,17,3,17,0.00
2014-4-21,79.9,63.2,44.0,42.6,36.3,29.7,70,40,17,30.15,29.77,14,3,15,0.00
2014-4-22,68.0,56.5,46.6,58.2,46.7,36.5,95,70,49,29.77,29.52,30,3,30,0.23
2014-4-23,47.4,42.3,35.7,38.7,34.0,24.7,88,73,57,30.09,29.76,18,5,20,0.00
2014-4-24,61.0,44.0,25.0,30.7,25.0,19.8,87,51,22,30.20,29.94,12,1,12,0.00
2014-4-25,70.1,57.6,44.6,55.1,38.4,21.9,92,53,28,29.94,29.60,24,5,24,0.28
2014-4-26,70.8,54.3,43.4,49.5,41.2,32.7,91,65,35,29.99,29.74,29,6,29,0.00
2014-4-27,63.9,48.0,31.4,39.3,34.3,29.0,94,63,32,30.12,29.99,11,1,11,0.00
2014-4-28,61.0,52.7,47.0,48.6,40.8,33.5,91,65,47,30.05,29.83,25,4,28,0.18
2014-4-29,52.8,50.3,47.9,47.5,45.1,43.2,89,82,73,29.99,29.76,46,10,46,0.26
2014-4-30,60.9,54.0,49.9,55.7,48.6,43.6,95,82,76,29.98,29.73,25,5,31,0.23
2014-5-1,61.6,56.0,48.5,55.3,48.6,38.3,96,78,49,29.82,29.77,22,5,22,0.15
2014-5-2,54.9,51.8,48.3,42.0,40.4,37.2,77,65,57,29.87,29.76,21,4,21,0.00
2014-5-3,62.5,51.4,40.7,51.3,43.8,37.9,93,76,51,29.84,29.73,22,4,22,0.17
2014-5-4,61.9,53.7,44.7,46.6,41.5,33.2,83,64,46,30.03,29.79,19,3,19,0.00
2014-5-5,60.4,48.6,32.1,41.8,35.9,29.8,94,64,36,30.09,29.90,9,1,9,0.00
2014-5-6,70.8,56.3,39.9,44.0,40.1,35.2,94,59,30,30.02,29.89,12,2,12,0.00
2014-5-7,76.3,58.6,44.2,59.4,47.6,36.0,89,68,50,30.16,29.96,18,3,21,0.25
2014-5-8,85.3,69.6,51.3,62.3,55.4,48.5,92,64,36,30.06,29.94,20,4,20,0.00
2014-5-9,84.3,71.3,55.1,61.1,56.9,52.9,94,64,38,30.01,29.79,27,5,27,0.00
2014-5-10,68.3,63.3,58.5,62.7,59.8,56.3,94,88,76,29.95,29.84,17,4,17,0.68
2014-5-11,76.0,64.0,56.4,58.7,55.2,49.3,96,75,41,30.13,29.95,17,2,17,0.00
2014-5-12,76.4,65.7,55.4,68.3,61.0,52.8,95,85,67,30.09,30.02,19,2,19,0.06
2014-5-13,89.7,75.0,61.8,69.9,65.0,60.5,97,74,47,30.11,29.95,25,3,25,0.53
2014-5-14,81.0,71.2,61.6,69.9,63.9,60.2,96,79,58,30.07,29.91,21,2,21,0.16
2014-5-15,73.2,65.0,51.8,64.4,60.2,50.4,96,85,68,29.95,29.80,19,3,19,1.14
2014-5-16,58.4,51.0,45.1,50.4,44.9,40.3,96,81,55,29.98,29.86,11,2,11,0.22
2014-5-17,57.1,49.2,43.7,45.9,43.3,40.6,94,81,62,30.20,29.98,20,4,21,0.08
2014-5-18,63.2,50.6,38.7,44.9,39.1,33.5,96,69,35,30.28,30.20,12,1,12,0.00
2014-5-19,70.7,54.5,35.7,44.7,39.4,34.0,96,62,30,30.33,30.17,12,1,12,0.00
2014-5-20,76.7,60.9,44.4,58.3,47.1,37.7,91,64,31,30.21,29.94,12,1,12,0.00
2014-5-21,75.1,67.9,57.8,64.3,60.7,55.1,92,78,64,29.94,29.80,20,3,20,0.00
2014-5-22,78.9,68.5,53.2,65.8,59.1,48.2,93,74,45,29.95,29.78,24,5,24,0.00
2014-5-23,64.9,55.8,45.5,55.1,47.7,43.9,96,76,50,30.11,29.92,20,2,20,0.00
2014-5-24,75.5,61.6,50.6,55.3,49.7,47.1,88,67,41,30.17,30.05,13,1,13,0.00
2014-5-25,79.8,63.8,45.1,53.8,49.3,43.2,95,64,35,30.18,30.06,11,1,11,0.00
2014-5-26,83.2,67.9,49.1,57.0,53.2,47.1,95,64,36,30.12,29.95,15,2,15,0.00
2014-5-27,82.4,69.3,62.2,71.9,63.7,55.8,96,83,63,29.96,29.83,23,4,23,2.00
2014-5-28,80.3,69.4,63.1,69.4,65.3,61.9,97,87,67,29.98,29.85,14,3,14,0.17
2014-5-29,73.2,66.5,60.4,65.8,62.9,58.2,96,88,77,30.03,29.95,10,1,10,0.00
2014-5-30,72.3,61.0,57.6,59.7,56.9,55.5,95,87,58,30.13,30.03,11,3,11,0.00
2014-5-31,73.0,65.3,62.3,51.3,48.6,45.5,66,55,40,30.17,30.13,8,0,8,0.00
2014-6-1,83.7,71.7,59.4,60.4,52.8,44.0,68,52,40,30.22,30.06,17,2,17,0.00
2014-6-2,82.0,71.0,59.3,68.8,61.9,55.3,89,74,62,30.11,29.96,17,3,17,0.00
2014-6-3,83.8,72.9,64.2,69.9,65.9,60.9,92,80,57,29.96,29.79,18,5,18,0.30
2014-6-4,75.5,66.1,59.0,64.8,60.4,57.7,97,83,54,29.88,29.63,10,1,11,0.21
2014-6-5,70.8,62.7,52.3,59.5,54.3,48.0,95,76,53,29.91,29.63,16,2,16,0.11
2014-6-6,75.7,61.2,45.1,55.3,50.5,43.1,95,71,44,30.00,29.88,13,1,13,0.00
2014-6-7,83.1,67.5,50.2,61.0,55.1,48.5,96,68,39,30.04,29.88,10,1,10,0.00
2014-6-8,80.9,70.5,62.8,69.4,62.9,55.1,94,77,59,29.89,29.71,24,2,24,0.62
2014-6-9,69.1,63.9,59.8,63.5,60.8,58.1,96,90,79,29.91,29.82,8,1,8,0.01
2014-6-10,77.7,68.7,58.9,65.2,62.2,57.5,97,81,60,29.92,29.86,9,1,9,0.00
2014-6-11,84.8,71.7,63.6,70.4,65.5,62.1,96,82,59,29.89,29.72,34,2,34,1.24
2014-6-12,78.2,70.7,65.5,71.7,66.6,63.9,96,87,73,29.84,29.73,12,2,12,0.26
2014-6-13,79.8,67.9,60.8,67.9,64.3,59.3,96,89,64,29.89,29.71,26,2,26,0.46
2014-6-14,71.3,61.0,51.7,59.3,53.0,48.7,96,77,53,30.09,29.89,16,1,16,0.00
2014-6-15,84.6,66.8,48.7,59.7,53.3,45.5,96,67,28,30.15,30.02,9,1,9,0.00
2014-6-16,86.6,72.3,55.3,70.9,63.7,53.3,95,76,57,30.10,29.99,14,3,18,0.00
2014-6-17,87.4,77.7,64.9,72.9,68.3,63.3,96,74,56,30.07,29.87,24,4,24,0.00
2014-6-18,85.0,77.8,66.8,72.7,68.9,64.8,94,75,58,30.04,29.90,22,4,22,0.49
2014-6-19,73.9,69.5,65.4,70.4,66.9,64.2,96,92,84,30.03,29.92,12,2,12,0.20
2014-6-20,82.5,70.4,61.8,68.2,63.9,60.7,98,82,50,30.03,29.86,7,1,7,0.01
2014-6-21,72.4,67.1,62.2,65.7,63.5,59.8,95,89,74,29.89,29.82,10,1,10,0.14
2014-6-22,82.4,69.5,57.5,66.1,61.5,56.4,97,77,49,29.93,29.86,7,1,9,0.00
2014-6-23,86.2,74.4,61.7,71.5,64.8,58.1,90,73,52,29.97,29.90,15,2,15,0.00
2014-6-24,87.8,75.8,66.1,72.7,67.6,63.1,92,76,56,29.97,29.86,20,3,20,0.04
2014-6-25,78.8,73.3,67.9,71.5,68.7,66.1,95,86,73,29.88,29.80,17,2,17,0.07
2014-6-26,81.2,71.5,64.9,67.1,64.5,62.9,96,80,56,29.99,29.87,12,1,13,0.00
2014-6-27,86.6,74.2,59.6,68.8,64.1,58.2,97,73,47,30.07,29.99,9,1,9,0.00
2014-6-28,86.8,77.3,70.0,71.2,67.7,65.3,92,73,52,30.14,30.07,12,2,17,0.80
2014-6-29,83.0,76.0,67.5,72.3,68.4,65.3,93,78,64,30.12,29.97,17,3,17,0.00
2014-6-30,88.4,78.0,69.7,73.7,69.8,67.2,93,77,55,30.01,29.82,14,3,14,0.00
2014-7-1,89.1,79.8,68.6,75.6,71.5,66.8,95,77,61,29.86,29.73,21,4,21,0.00
2014-7-2,87.7,80.0,72.8,72.1,69.6,66.6,87,72,55,29.87,29.74,16,4,16,0.00
2014-7-3,83.5,74.2,65.4,71.2,65.2,56.2,95,75,50,30.01,29.84,20,2,20,0.01
2014-7-4,73.9,65.4,55.6,57.9,53.5,47.7,88,67,46,30.23,30.01,19,2,19,0.00
2014-7-5,80.5,64.8,48.4,55.3,50.4,45.3,95,64,34,30.28,30.12,11,1,11,0.00
2014-7-6,81.7,67.7,52.6,63.6,56.3,50.6,94,70,38,30.12,29.88,16,2,16,0.00
2014-7-7,87.2,77.9,68.5,67.4,64.2,62.2,83,64,47,29.88,29.70,24,8,25,0.00
2014-7-8,85.5,74.4,68.4,71.7,67.3,63.8,95,79,61,29.77,29.60,30,8,30,0.95
2014-7-9,83.1,73.6,64.9,68.1,64.2,59.5,96,75,46,29.94,29.76,19,4,19,0.00
2014-7-10,83.6,72.1,60.2,66.7,62.2,58.5,96,73,44,30.08,29.94,10,1,10,0.00
2014-7-11,87.6,74.2,60.3,67.8,61.6,58.0,95,68,40,30.14,30.07,9,1,9,0.00
2014-7-12,87.4,75.4,62.3,67.4,62.9,59.9,94,68,42,30.13,30.00,14,2,14,0.00
2014-7-13,86.2,74.6,67.8,73.7,67.4,62.8,96,79,61,30.00,29.79,27,4,27,0.77
2014-7-14,80.8,72.6,68.6,73.2,69.2,67.1,97,89,74,29.88,29.75,12,3,12,0.45
2014-7-15,79.6,71.7,60.4,69.2,64.8,55.5,95,80,49,29.81,29.69,17,3,17,0.14
2014-7-16,75.7,65.0,54.8,58.8,55.0,51.2,95,72,44,29.95,29.80,16,2,16,0.00
2014-7-17,75.4,65.1,53.0,59.4,55.0,51.2,96,72,47,30.12,29.95,10,1,10,0.00
2014-7-18,78.3,67.2,52.9,63.3,58.1,51.2,96,74,50,30.20,30.12,13,1,13,0.00
2014-7-19,67.6,65.6,63.2,65.6,63.1,60.0,95,92,79,30.16,30.05,9,1,9,0.64
2014-7-20,81.8,72.1,63.4,68.1,63.9,60.2,91,76,59,30.06,29.99,10,2,10,0.01
2014-7-21,88.5,76.7,68.0,72.6,68.2,63.9,90,76,52,30.09,30.00,9,1,10,0.00
2014-7-22,90.3,78.6,66.6,73.7,69.6,64.7,96,75,54,30.09,29.95,11,2,11,0.00
2014-7-23,85.2,75.9,67.7,74.0,69.2,61.9,95,80,60,29.95,29.81,16,3,16,0.00
2014-7-24,76.6,68.7,59.6,62.4,58.4,54.4,91,71,51,30.00,29.88,13,2,13,0.00
2014-7-25,80.6,66.4,50.7,59.8,54.5,48.3,96,69,36,30.07,29.94,13,1,13,0.00
2014-7-26,85.2,71.8,60.8,67.2,61.5,56.7,93,72,45,29.97,29.81,17,3,17,0.36
2014-7-27,84.3,71.9,66.3,73.1,68.0,64.2,96,88,64,29.84,29.55,17,4,18,0.58
2014-7-28,69.0,64.8,58.4,67.1,61.5,54.7,97,89,77,29.88,29.51,20,4,21,0.07
2014-7-29,68.9,59.2,51.0,55.6,52.8,49.4,96,81,58,30.01,29.88,9,1,9,0.00
2014-7-30,74.9,61.1,48.6,62.4,55.4,47.3,97,83,61,30.04,29.96,16,3,16,0.01
2014-7-31,79.5,67.4,56.6,65.5,60.4,55.1,95,80,54,30.07,30.00,14,3,14,0.08
2014-8-1,84.5,71.0,57.9,67.0,62.2,56.7,97,76,50,30.11,30.02,10,1,10,0.00
2014-8-2,83.0,72.0,64.4,68.6,63.6,59.7,96,76,54,30.08,29.95,22,1,22,0.74
2014-8-3,77.0,67.2,62.3,67.9,64.1,60.8,97,90,67,30.07,30.00,12,1,12,0.10
2014-8-4,83.8,69.8,58.2,67.8,61.8,57.4,98,79,43,30.11,30.02,8,1,8,0.01
2014-8-5,86.0,70.3,58.4,67.3,62.0,57.0,97,77,46,30.05,29.93,11,1,12,0.00
2014-8-6,80.2,69.2,61.7,66.7,62.6,58.2,95,81,55,29.96,29.89,11,1,11,0.00
2014-8-7,79.2,66.9,53.4,62.3,58.0,52.0,97,75,50,30.05,29.95,5,0,10,0.00
2014-8-8,80.3,67.0,53.8,63.0,58.1,52.4,96,75,49,30.11,30.01,8,1,10,0.00
2014-8-9,85.2,72.7,59.8,67.6,62.2,56.7,91,71,48,30.05,29.98,13,1,13,0.00
2014-8-10,86.3,75.4,62.7,66.4,63.3,60.3,93,68,47,30.05,29.96,15,2,15,0.00
2014-8-11,73.0,69.5,65.9,65.3,61.8,58.4,88,77,69,30.01,29.83,20,2,20,0.16
2014-8-12,84.9,70.8,65.3,71.9,66.3,61.6,95,86,59,29.84,29.65,16,3,16,0.72
2014-8-13,72.3,65.8,55.5,65.3,60.4,52.5,94,84,59,29.93,29.75,16,3,16,0.09
2014-8-14,74.4,62.4,51.7,60.6,52.0,44.5,96,72,37,29.96,29.88,19,2,19,0.00
2014-8-15,72.0,59.5,46.7,54.1,50.0,44.8,94,73,47,30.00,29.95,17,2,17,0.00
2014-8-16,79.2,63.2,45.7,58.0,52.1,44.3,97,71,38,30.01,29.90,17,2,17,0.00
2014-8-17,80.1,71.1,66.5,68.0,63.6,58.0,94,78,59,29.94,29.87,12,2,13,0.05
2014-8-18,84.3,72.8,63.4,71.6,65.7,61.0,93,79,59,29.90,29.73,10,1,10,0.00
2014-8-19,87.9,76.2,67.5,72.4,68.0,64.9,93,77,53,29.81,29.74,8,1,8,0.00
2014-8-20,83.9,72.5,65.4,71.5,66.9,63.8,97,84,61,29.93,29.81,16,2,16,0.59
2014-8-21,78.8,71.8,64.6,70.8,67.9,63.1,97,88,75,30.00,29.92,19,3,19,0.00
2014-8-22,85.0,74.7,69.6,72.2,69.5,67.4,94,85,64,29.98,29.86,10,1,10,0.00
2014-8-23,85.7,73.7,67.7,72.5,68.5,63.0,95,84,61,30.00,29.88,13,1,13,0.00
2014-8-24,81.5,72.2,65.3,65.8,62.8,58.9,86,73,54,30.08,29.99,13,2,13,0.00
2014-8-25,82.5,71.0,58.5,63.5,59.7,56.2,93,69,47,30.14,30.06,10,1,10,0.00
2014-8-26,86.0,71.4,55.3,65.7,60.3,53.3,95,70,43,30.14,30.01,10,1,10,0.00
2014-8-27,87.0,72.2,61.2,74.4,66.5,59.5,96,83,61,30.04,29.90,17,2,17,0.27
2014-8-28,75.9,66.2,55.8,65.0,57.1,52.4,97,75,46,30.10,29.97,12,1,13,0.00
2014-8-29,84.6,66.6,49.2,60.2,54.7,47.8,96,69,39,30.15,30.04,10,1,10,0.00
2014-8-30,90.8,77.3,62.9,72.3,66.1,58.2,89,70,48,30.08,29.95,16,3,16,0.00
2014-8-31,75.7,72.7,69.7,72.2,69.4,67.3,96,90,78,30.00,29.94,20,3,20,0.52
2014-9-1,84.6,75.0,70.9,74.1,70.7,68.9,96,87,66,29.97,29.87,14,3,15,0.05
2014-9-2,84.9,76.5,69.2,74.1,70.6,66.7,96,82,67,29.92,29.77,30,5,30,0.43
2014-9-3,86.1,72.2,62.8,67.9,64.6,61.7,98,79,48,30.06,29.90,6,0,8,0.00
2014-9-4,89.5,75.7,61.4,71.7,67.0,59.6,96,76,53,30.08,29.99,10,1,12,0.00
2014-9-5,89.3,76.9,66.7,74.3,69.7,65.2,96,80,53,30.10,29.93,13,2,13,0.00
2014-9-6,82.7,72.0,60.9,72.9,67.3,59.3,96,86,66,30.04,29.84,16,2,16,0.09
2014-9-7,74.2,62.7,51.9,59.8,55.1,50.8,97,79,50,30.17,30.03,12,1,14,0.01
2014-9-8,78.2,64.6,49.8,61.4,55.4,48.4,96,74,52,30.17,30.08,19,3,20,0.00
2014-9-9,80.6,69.7,63.7,66.5,60.6,55.7,82,73,58,30.13,29.99,17,3,17,0.00
2014-9-10,85.6,75.0,65.8,69.2,65.2,61.3,88,73,52,30.01,29.77,17,3,18,0.00
2014-9-11,77.4,70.3,58.9,69.3,63.9,55.3,95,81,68,30.06,29.71,15,4,24,0.12
2014-9-12,63.4,57.9,52.8,55.9,53.0,50.7,94,84,70,30.17,30.05,8,1,8,0.00
2014-9-13,67.7,58.1,46.8,57.8,52.8,44.5,95,84,57,30.28,29.99,10,2,13,0.18
2014-9-14,68.7,53.3,40.5,49.7,45.4,39.2,97,77,47,30.33,30.17,8,0,9,0.00
2014-9-15,72.8,56.4,41.2,53.6,48.1,39.9,97,76,48,30.24,30.01,12,1,12,0.00
2014-9-16,67.4,58.4,49.5,55.0,52.8,47.8,95,82,60,30.08,29.99,10,1,10,0.09
2014-9-17,73.9,58.1,46.0,56.6,49.7,44.7,97,77,43,30.05,29.92,11,1,12,0.00
2014-9-18,70.8,57.4,47.7,54.6,48.9,44.2,96,76,40,30.12,29.95,13,1,15,0.00
2014-9-19,73.0,59.0,43.2,57.3,51.0,41.9,97,77,54,30.21,30.12,12,2,15,0.00
2014-9-20,81.2,70.3,62.3,64.1,59.5,54.5,90,70,54,30.14,29.90,17,4,20,0.00
2014-9-21,78.4,67.0,60.4,68.2,60.5,49.4,94,80,54,29.91,29.59,20,4,22,0.67
2014-9-22,60.8,55.5,46.9,53.6,47.7,43.0,92,75,57,30.25,29.80,14,1,15,0.00
2014-9-23,70.9,53.6,38.3,52.5,45.5,37.0,96,77,46,30.36,30.25,8,1,10,0.00
2014-9-24,78.0,60.5,44.9,53.4,49.0,43.5,96,70,37,30.43,30.35,14,2,15,0.00
2014-9-25,77.1,64.2,54.0,62.0,56.7,51.3,93,78,58,30.35,30.20,10,1,10,0.00
2014-9-26,78.2,62.7,48.8,59.8,54.1,47.4,97,77,44,30.26,30.17,10,1,10,0.00
2014-9-27,81.8,62.6,46.8,59.8,52.7,45.3,96,74,36,30.25,30.13,11,1,11,0.01
2014-9-28,76.0,62.9,49.0,60.4,55.6,47.3,96,79,55,30.16,30.02,10,1,10,0.00
2014-9-29,80.8,65.8,54.1,62.7,58.2,52.7,97,79,47,30.02,29.85,8,1,9,0.04
2014-9-30,78.1,62.8,52.4,63.3,56.6,51.0,97,82,46,29.92,29.82,12,1,12,0.00
2014-10-1,75.2,61.8,49.7,61.1,55.7,48.3,97,82,55,30.02,29.90,10,1,10,0.00
2014-10-2,79.7,63.9,50.9,60.8,54.6,49.4,97,75,41,30.08,29.94,14,1,16,0.00
2014-10-3,76.0,66.6,61.1,64.6,60.4,55.3,95,81,61,29.94,29.57,23,3,26,0.48
2014-10-4,61.9,49.4,43.4,58.7,42.9,32.7,95,79,57,29.79,29.59,26,5,26,0.14
2014-10-5,52.2,45.6,39.7,39.2,36.5,33.7,85,71,54,29.90,29.78,15,4,20,0.00
2014-10-6,70.5,58.0,48.9,55.7,47.5,35.6,90,69,52,29.90,29.76,21,5,21,0.13
2014-10-7,70.7,58.7,51.0,56.2,51.9,48.2,92,79,48,29.92,29.71,27,6,27,0.14
2014-10-8,65.8,57.0,48.5,54.6,48.3,41.6,96,75,46,30.02,29.77,25,5,25,0.00
2014-10-9,62.9,51.1,38.9,46.8,42.5,36.5,93,74,48,30.10,30.00,22,4,22,0.00
2014-10-10,59.3,51.2,41.7,50.9,47.3,40.1,96,87,68,30.09,30.02,7,0,7,0.04
2014-10-11,62.9,52.0,43.4,50.1,45.1,38.7,95,79,48,30.19,29.96,12,1,12,0.14
2014-10-12,65.2,50.1,35.4,50.3,43.4,33.8,96,79,56,30.20,30.12,20,2,20,0.00
2014-10-13,73.7,64.1,54.7,64.9,57.8,49.2,86,80,72,30.13,30.01,15,3,16,0.02
2014-10-14,81.8,71.6,63.3,66.9,62.6,57.7,87,74,54,30.02,29.67,29,5,29,0.01
2014-10-15,71.9,58.6,50.8,65.0,56.3,49.4,96,92,80,29.84,29.66,27,1,27,0.87
2014-10-16,61.4,56.0,50.7,54.9,53.4,49.6,97,91,74,29.74,29.68,14,2,15,0.03
2014-10-17,68.9,59.9,53.9,54.5,52.5,50.4,95,78,54,29.74,29.58,22,6,22,0.01
2014-10-18,63.4,52.6,45.3,54.0,45.7,41.2,92,78,61,29.93,29.59,25,5,25,0.08
2014-10-19,55.4,44.9,36.6,42.8,37.2,33.8,91,76,47,30.14,29.93,17,3,17,0.02
2014-10-20,57.3,47.6,35.7,47.6,40.8,33.6,94,78,60,30.08,29.86,21,3,21,0.01
2014-10-21,55.2,50.8,47.8,51.7,48.0,45.5,94,90,74,29.99,29.82,14,2,14,0.23
2014-10-22,49.4,47.9,46.5,47.4,44.7,42.4,96,88,81,30.15,29.97,12,3,12,0.05
2014-10-23,63.4,51.7,43.3,46.5,43.4,40.1,89,75,51,30.12,29.99,21,3,21,0.00
2014-10-24,60.7,48.5,40.3,46.8,42.3,37.4,95,81,54,30.09,29.97,15,2,15,0.00
2014-10-25,66.8,55.2,39.8,53.6,47.2,37.4,94,75,58,30.00,29.70,19,6,21,0.00
2014-10-26,63.6,52.5,38.4,49.9,35.8,31.7,77,55,33,29.95,29.72,22,4,22,0.00
2014-10-27,74.3,50.3,30.0,50.9,37.5,28.1,96,68,27,30.06,29.89,15,2,15,0.00
2014-10-28,77.3,69.8,57.3,60.0,55.1,50.4,93,60,49,29.93,29.79,28,8,28,0.12
2014-10-29,60.3,54.2,47.8,56.6,44.0,35.6,93,70,47,30.01,29.88,20,4,20,0.02
2014-10-30,49.7,45.8,41.1,40.8,38.4,35.6,84,75,63,30.09,30.01,10,2,10,0.00
2014-10-31,49.2,45.1,42.2,41.5,40.0,37.4,95,83,64,30.03,29.83,9,1,9,0.09
2014-11-1,45.9,41.0,35.8,41.7,37.1,30.5,95,86,73,30.13,29.85,20,4,20,0.04
2014-11-2,47.0,37.0,27.3,30.8,26.5,21.1,85,67,39,30.35,30.12,24,4,24,0.00
2014-11-3,54.3,41.5,27.0,31.0,27.1,23.2,88,59,34,30.39,30.20,13,4,18,0.00
2014-11-4,67.1,57.4,48.6,32.7,28.1,24.3,41,33,23,30.23,30.00,22,7,23,0.00
2014-11-5,60.9,52.8,46.8,50.5,45.2,31.8,92,76,34,30.17,30.01,23,4,24,0.02
2014-11-6,55.9,47.0,44.5,51.6,44.9,42.2,96,92,81,30.04,29.65,28,3,28,0.55
2014-11-7,44.5,39.7,30.5,42.7,33.8,24.3,94,80,65,30.05,29.77,23,5,26,0.03
2014-11-8,52.6,41.2,26.7,39.2,29.3,24.0,94,65,42,30.05,29.80,18,4,18,0.00
2014-11-9,51.8,44.5,40.4,38.5,34.5,31.4,81,69,50,30.00,29.91,15,4,18,0.00
2014-11-10,71.2,52.7,35.2,42.4,36.9,32.5,93,59,27,30.08,29.90,22,3,22,0.00
2014-11-11,72.7,55.7,38.4,42.2,38.1,33.9,85,55,28,29.93,29.78,16,2,21,0.00
2014-11-12,61.9,43.5,36.6,51.4,34.3,27.3,91,71,40,30.18,29.79,18,4,18,0.17
2014-11-13,36.6,34.1,29.2,29.3,27.3,23.2,88,76,68,30.17,30.08,10,3,13,0.00
2014-11-14,34.8,29.6,26.1,23.7,20.9,18.6,81,70,54,30.33,30.15,14,4,18,0.00
2014-11-15,37.9,29.2,23.1,23.4,19.6,17.5,81,68,46,30.44,30.28,13,3,15,0.00
2014-11-16,42.5,36.2,26.1,35.7,28.4,21.0,92,74,57,30.29,29.91,16,2,16,0.12
2014-11-17,43.6,35.7,19.9,42.5,32.8,10.8,96,89,67,29.92,29.52,27,4,27,0.55
2014-11-18,21.8,18.8,15.3,13.4,7.9,5.2,79,62,51,30.26,29.92,29,10,30,0.00
2014-11-19,40.2,26.9,14.6,26.1,14.1,6.9,81,59,45,30.30,29.93,24,6,24,0.00
2014-11-20,38.3,30.0,22.9,27.3,18.3,11.8,79,62,50,30.17,29.92,27,8,27,0.00
2014-11-21,29.4,22.2,15.1,16.2,13.3,10.9,84,69,50,30.54,30.17,16,3,16,0.00
2014-11-22,47.3,31.5,11.9,34.6,21.7,9.0,90,70,37,30.50,30.13,18,2,18,0.00
2014-11-23,67.0,54.6,42.6,49.3,39.4,28.1,88,57,42,30.15,29.48,37,4,37,0.11
2014-11-24,70.7,62.1,44.7,53.2,46.8,33.7,89,59,39,29.84,29.38,42,11,42,0.02
2014-11-25,51.8,42.3,31.8,35.4,31.3,26.5,81,65,47,30.19,29.84,17,5,23,0.00
2014-11-26,34.8,33.0,31.5,32.2,30.1,26.6,95,89,79,30.19,30.00,5,0,5,0.12
2014-11-27,37.7,33.1,29.6,32.1,29.8,25.2,95,88,73,30.23,30.00,16,3,16,0.06
2014-11-28,31.2,28.0,25.6,25.8,20.4,15.7,88,73,57,30.36,30.21,16,4,16,0.01
2014-11-29,52.2,40.4,27.5,42.7,28.0,20.5,75,62,43,30.24,29.97,18,3,18,0.02
2014-11-30,62.4,58.2,52.6,50.8,47.7,42.7,71,68,64,30.00,29.90,23,8,23,0.00
2014-12-1,61.4,44.7,29.9,54.5,41.0,25.9,94,87,68,30.51,30.00,17,4,17,0.26
2014-12-2,44.4,35.1,28.4,42.1,30.9,23.4,93,84,71,30.51,30.12,21,4,21,0.14
2014-12-3,46.1,39.9,31.0,45.0,37.0,28.4,96,89,76,30.34,30.07,24,5,24,0.04
2014-12-4,37.3,31.8,27.6,29.8,26.3,23.0,94,81,57,30.47,30.34,11,1,11,0.01
2014-12-5,48.1,40.8,30.2,47.0,37.4,25.4,96,88,76,30.39,30.13,17,4,18,0.50
2014-12-6,55.0,44.5,34.8,54.2,42.5,29.5,98,93,79,30.43,30.01,18,4,18,0.56
2014-12-7,43.8,34.3,26.1,29.3,24.0,19.2,89,67,44,30.61,30.42,14,3,14,0.01
2014-12-8,38.6,35.8,29.2,32.7,20.9,8.7,81,56,33,30.51,30.18,25,4,25,0.00
2014-12-9,48.4,40.2,33.2,38.6,34.2,30.6,92,79,66,30.21,29.99,15,2,15,0.00
2014-12-10,38.7,34.0,30.1,34.5,30.1,24.8,92,86,78,30.04,29.94,25,5,25,0.04
2014-12-11,33.0,29.8,26.7,25.1,20.8,14.1,84,70,47,30.06,29.92,25,9,25,0.00
2014-12-12,32.7,30.1,26.6,25.5,24.2,23.1,87,78,69,30.25,30.05,14,6,19,0.00
2014-12-13,34.7,30.7,27.5,33.4,27.9,24.0,95,89,85,30.25,30.09,16,6,19,0.00
2014-12-14,41.6,39.2,34.7,40.5,38.0,33.4,96,96,95,30.10,30.05,17,5,17,0.08
2014-12-15,46.5,41.3,34.9,43.9,39.8,33.3,97,94,89,30.12,29.91,9,2,9,0.01
2014-12-16,54.2,45.2,35.0,50.0,42.3,33.5,96,90,74,29.92,29.72,19,4,19,0.59
2014-12-17,42.0,36.2,30.3,40.4,31.6,22.8,94,83,73,30.14,29.91,25,8,25,0.02
2014-12-18,30.3,28.9,28.3,25.8,23.5,21.5,87,80,74,30.22,30.13,20,5,20,0.00
2014-12-19,31.9,29.6,28.0,27.4,25.0,21.9,92,83,71,30.31,30.16,15,4,15,0.00
2014-12-20,34.0,27.8,23.1,23.5,21.4,18.6,86,77,64,30.32,30.25,6,1,6,0.00
2014-12-21,35.5,30.2,27.1,26.4,24.3,22.6,86,79,68,30.37,30.22,13,1,13,0.00
2014-12-22,43.4,36.0,29.9,35.8,29.2,24.3,87,77,65,30.22,29.97,18,4,19,0.00
2014-12-23,56.0,47.4,40.5,47.1,41.8,35.6,89,81,71,29.99,29.84,21,4,21,0.04
2014-12-24,62.7,53.3,44.6,53.2,48.3,40.3,94,83,64,29.85,29.32,43,4,54,0.29
2014-12-25,44.5,40.1,38.5,40.3,34.2,30.5,88,79,71,30.23,29.60,28,8,28,0.02
2014-12-26,51.1,40.7,33.8,36.8,32.5,29.7,86,73,52,30.33,30.19,11,3,16,0.00
2014-12-27,59.4,43.4,27.4,38.5,32.3,25.6,94,68,37,30.28,29.96,16,2,16,0.00
2014-12-28,54.2,41.2,34.9,44.4,37.5,28.2,95,88,37,30.16,29.91,17,3,17,0.23
2014-12-29,37.4,33.3,28.4,32.2,26.8,19.2,90,77,65,30.34,30.14,10,2,10,0.00
2014-12-30,34.7,27.6,22.3,19.4,17.3,14.1,82,66,45,30.49,30.33,14,2,14,0.00
2014-12-31,28.0,23.5,20.7,17.2,9.6,5.9,74,55,41,30.47,30.24,22,7,22,0.00
2015-1-1,37.2,28.4,21.3,20.2,13.3,6.4,56,53,49,30.24,30.03,28,9,29,0.00
2015-1-2,39.1,31.2,23.3,23.0,20.8,18.0,86,66,51,30.42,30.16,19,4,19,0.00